createdAt,value
2022-08-28T00:00:30.871Z,16.90
2022-08-28T00:02:58.545Z,17.00
2022-08-28T00:05:30.319Z,16.80
2022-08-28T00:07:57.625Z,16.80
2022-08-28T00:10:25.829Z,16.80
2022-08-28T00:12:55.700Z,16.70
2022-08-28T00:15:30.791Z,16.80
2022-08-28T00:17:58.771Z,16.80
2022-08-28T00:20:26.754Z,16.80
2022-08-28T00:22:56.352Z,16.70
2022-08-28T00:25:28.317Z,16.80
2022-08-28T00:28:01.158Z,16.80
2022-08-28T00:30:41.767Z,17.00
2022-08-28T00:33:14.367Z,16.90
2022-08-28T00:35:45.308Z,17.00
2022-08-28T00:38:13.674Z,17.00
2022-08-28T00:40:44.525Z,16.90
2022-08-28T00:43:37.159Z,16.90
2022-08-28T00:46:07.568Z,17.00
2022-08-28T00:48:34.394Z,17.10
2022-08-28T00:51:21.962Z,17.00
2022-08-28T00:53:58.073Z,17.00
2022-08-28T00:56:29.621Z,17.00
2022-08-28T00:59:05.250Z,17.00
2022-08-28T01:01:34.798Z,17.00
2022-08-28T01:04:06.029Z,17.00
2022-08-28T01:06:36.717Z,17.00
2022-08-28T01:09:04.898Z,17.10
2022-08-28T01:11:32.339Z,16.90
2022-08-28T01:14:02.995Z,16.80
2022-08-28T01:16:33.190Z,17.00
2022-08-28T01:19:02.330Z,16.90
2022-08-28T01:21:35.238Z,17.00
2022-08-28T01:24:10.235Z,16.90
2022-08-28T01:26:38.395Z,16.80
2022-08-28T01:29:09.146Z,16.90
2022-08-28T01:31:36.581Z,16.90
2022-08-28T01:34:07.850Z,16.90
2022-08-28T01:36:35.038Z,17.00
2022-08-28T01:39:10.140Z,17.00
2022-08-28T01:41:42.046Z,17.00
2022-08-28T01:44:09.346Z,17.00
2022-08-28T01:46:36.416Z,17.10
2022-08-28T01:49:04.795Z,17.00
2022-08-28T01:51:35.048Z,17.00
2022-08-28T01:54:02.438Z,17.10
2022-08-28T01:56:29.847Z,17.10
2022-08-28T01:58:56.647Z,17.00
2022-08-28T02:01:23.488Z,16.90
2022-08-28T02:04:01.876Z,16.90
2022-08-28T02:06:30.937Z,16.90
2022-08-28T02:09:00.471Z,17.00
2022-08-28T02:11:32.185Z,17.00
2022-08-28T02:14:00.680Z,17.00
2022-08-28T02:16:32.460Z,17.00
2022-08-28T02:19:00.698Z,17.00
2022-08-28T02:21:27.870Z,17.00
2022-08-28T02:23:54.794Z,17.10
2022-08-28T02:26:21.861Z,17.00
2022-08-28T02:28:48.637Z,17.00
2022-08-28T02:31:15.531Z,17.10
2022-08-28T02:33:44.636Z,17.00
2022-08-28T02:36:15.845Z,17.00
2022-08-28T02:39:14.245Z,17.00
2022-08-28T02:41:55.323Z,17.00
2022-08-28T02:44:54.255Z,17.00
2022-08-28T02:50:56.464Z,17.20
2022-08-28T02:53:40.662Z,17.10
2022-08-28T02:56:08.441Z,17.10
2022-08-28T02:58:35.628Z,17.10
2022-08-28T03:01:05.162Z,17.10
2022-08-28T03:03:34.223Z,17.10
2022-08-28T03:06:03.347Z,17.20
2022-08-28T03:08:32.214Z,17.10
2022-08-28T03:11:00.138Z,17.20
2022-08-28T03:13:30.632Z,17.20
2022-08-28T03:15:58.424Z,17.10
2022-08-28T03:18:27.586Z,17.10
2022-08-28T03:20:55.866Z,17.10
2022-08-28T03:23:26.404Z,17.20
2022-08-28T03:26:00.546Z,17.20
2022-08-28T03:28:32.779Z,17.10
2022-08-28T03:30:59.781Z,17.10
2022-08-28T03:33:29.473Z,17.10
2022-08-28T03:35:59.392Z,17.10
2022-08-28T03:38:31.559Z,17.00
2022-08-28T03:51:13.375Z,17.10
2022-08-28T04:07:32.043Z,17.10
2022-08-28T04:10:04.494Z,17.20
2022-08-28T04:12:44.785Z,17.10
2022-08-28T04:15:36.179Z,17.10
2022-08-28T04:18:28.628Z,17.10
2022-08-28T04:21:09.952Z,17.10
2022-08-28T04:24:00.768Z,17.10
2022-08-28T04:27:01.167Z,17.20
2022-08-28T04:33:04.913Z,17.20
2022-08-28T04:36:11.164Z,17.20
2022-08-28T04:39:04.608Z,17.20
2022-08-28T04:41:49.627Z,17.10
2022-08-28T04:44:47.490Z,17.10
2022-08-28T04:47:24.905Z,17.20
2022-08-28T04:50:31.315Z,17.10
2022-08-28T04:53:10.821Z,17.10
2022-08-28T04:55:54.629Z,17.20
2022-08-28T04:58:24.291Z,17.20
2022-08-28T05:01:20.659Z,17.20
2022-08-28T05:03:53.970Z,17.30
2022-08-28T05:06:31.627Z,17.40
2022-08-28T05:09:02.120Z,17.30
2022-08-28T05:11:44.712Z,17.30
2022-08-28T05:14:24.074Z,17.30
2022-08-28T05:16:55.584Z,17.30
2022-08-28T05:19:27.122Z,17.30
2022-08-28T05:21:54.034Z,17.30
2022-08-28T05:24:22.137Z,17.30
2022-08-28T05:26:51.240Z,17.40
2022-08-28T05:29:17.986Z,17.50
2022-08-28T05:31:47.896Z,17.40
2022-08-28T05:34:17.249Z,17.50
2022-08-28T05:36:46.213Z,17.40
2022-08-28T05:47:50.106Z,17.30
2022-08-28T05:50:47.401Z,17.40
2022-08-28T05:54:02.032Z,17.50
2022-08-28T05:57:09.837Z,17.50
2022-08-28T06:00:41.452Z,17.50
2022-08-28T06:03:44.509Z,17.50
2022-08-28T06:31:35.035Z,18.00
2022-08-28T06:34:26.135Z,18.00
2022-08-28T06:37:10.950Z,18.00
2022-08-28T06:39:58.447Z,18.00
2022-08-28T07:21:02.946Z,18.50
2022-08-28T07:23:57.441Z,18.70
2022-08-28T07:29:51.233Z,19.00
2022-08-28T07:32:24.164Z,19.00
2022-08-28T07:35:00.261Z,18.90
2022-08-28T07:37:27.369Z,18.80
2022-08-28T07:40:22.026Z,18.70
2022-08-28T07:43:07.913Z,18.60
2022-08-28T07:45:40.078Z,18.50
2022-08-28T07:48:32.677Z,18.40
2022-08-28T07:51:02.411Z,18.30
2022-08-28T07:53:37.869Z,18.50
2022-08-28T08:06:40.367Z,18.40
2022-08-28T08:09:20.295Z,18.60
2022-08-28T08:12:29.393Z,18.30
2022-08-28T08:15:16.800Z,18.20
2022-08-28T08:19:02.056Z,18.20
2022-08-28T08:29:55.805Z,17.90
2022-08-28T08:32:25.439Z,17.50
2022-08-28T08:34:57.134Z,17.70
2022-08-28T08:38:02.668Z,17.50
2022-08-28T08:40:55.585Z,17.70
2022-08-28T08:43:31.130Z,17.70
2022-08-28T08:46:01.279Z,17.80
2022-08-28T08:48:34.527Z,17.90
2022-08-28T08:51:07.214Z,17.80
2022-08-28T08:53:54.334Z,17.90
2022-08-28T08:56:24.568Z,17.80
2022-08-28T08:59:04.504Z,17.90
2022-08-28T09:01:55.847Z,18.10
2022-08-28T09:04:34.455Z,17.90
2022-08-28T09:07:19.339Z,18.00
2022-08-28T09:09:57.649Z,17.90
2022-08-28T09:12:31.023Z,17.90
2022-08-28T09:15:05.650Z,17.80
2022-08-28T09:17:51.145Z,17.80
2022-08-28T09:20:30.240Z,17.90
2022-08-28T09:23:00.261Z,17.80
2022-08-28T09:25:47.629Z,17.70
2022-08-28T09:28:25.481Z,17.80
2022-08-28T09:30:56.698Z,17.90
2022-08-28T09:33:44.787Z,18.00
2022-08-28T09:36:23.559Z,18.00
2022-08-28T09:39:24.543Z,18.00
2022-08-28T09:42:17.506Z,18.20
2022-08-28T09:44:59.802Z,17.90
2022-08-28T09:47:36.910Z,17.90
2022-08-28T09:50:25.147Z,18.10
2022-08-28T09:52:53.853Z,18.10
2022-08-28T09:55:37.116Z,18.00
2022-08-28T09:58:05.394Z,17.80
2022-08-28T10:00:36.834Z,17.80
2022-08-28T10:03:14.913Z,17.90
2022-08-28T10:05:47.655Z,18.00
2022-08-28T10:08:37.470Z,18.00
2022-08-28T10:11:44.578Z,18.10
2022-08-28T10:14:39.742Z,18.00
2022-08-28T10:17:38.965Z,17.90
2022-08-28T10:20:08.949Z,17.90
2022-08-28T10:22:58.894Z,17.90
2022-08-28T10:26:07.238Z,17.90
2022-08-28T10:28:52.318Z,17.90
2022-08-28T10:31:31.510Z,18.00
2022-08-28T10:34:11.175Z,17.90
2022-08-28T10:36:37.938Z,17.90
2022-08-28T10:39:19.826Z,17.90
2022-08-28T10:42:00.048Z,17.80
2022-08-28T10:44:55.441Z,17.90
2022-08-28T10:47:25.725Z,17.90
2022-08-28T10:50:04.509Z,18.00
2022-08-28T10:52:40.755Z,18.00
2022-08-28T10:55:32.267Z,18.00
2022-08-28T10:58:04.912Z,18.00
2022-08-28T11:00:49.494Z,17.90
2022-08-28T11:03:33.924Z,18.10
2022-08-28T11:06:26.724Z,17.90
2022-08-28T11:08:56.871Z,18.00
2022-08-28T11:11:43.014Z,18.10
2022-08-28T11:14:11.042Z,18.20
2022-08-28T11:16:42.166Z,18.10
2022-08-28T11:19:25.859Z,18.30
2022-08-28T11:21:56.336Z,18.30
2022-08-28T11:24:39.689Z,18.30
2022-08-28T11:27:40.644Z,18.40
2022-08-28T11:30:14.944Z,18.40
2022-08-28T11:32:50.903Z,18.30
2022-08-28T11:35:44.256Z,18.40
2022-08-28T11:38:12.578Z,18.50
2022-08-28T11:40:40.619Z,18.50
2022-08-28T11:43:15.900Z,18.40
2022-08-28T11:45:46.782Z,18.60
2022-08-28T11:48:43.188Z,18.70
2022-08-28T11:51:35.658Z,18.60
2022-08-28T11:54:40.174Z,18.80
2022-08-28T11:57:17.991Z,18.70
2022-08-28T11:59:58.051Z,18.80
2022-08-28T12:02:40.059Z,18.80
2022-08-28T12:05:12.091Z,18.80
2022-08-28T12:07:41.823Z,18.70
2022-08-28T12:10:20.849Z,18.80
2022-08-28T12:12:47.575Z,19.00
2022-08-28T12:15:29.776Z,18.90
2022-08-28T12:18:06.480Z,19.10
2022-08-28T12:20:44.366Z,19.00
2022-08-28T12:23:23.370Z,19.00
2022-08-28T12:26:01.822Z,19.10
2022-08-28T12:28:32.034Z,19.20
2022-08-28T12:31:04.694Z,19.10
2022-08-28T12:33:36.285Z,19.20
2022-08-28T12:36:05.601Z,19.10
2022-08-28T12:38:34.095Z,19.20
2022-08-28T12:41:02.500Z,19.20
2022-08-28T12:43:46.346Z,19.30
2022-08-28T12:46:24.880Z,19.40
2022-08-28T12:48:54.587Z,19.50
2022-08-28T12:51:27.626Z,19.60
2022-08-28T12:54:06.762Z,19.60
2022-08-28T12:56:36.973Z,19.70
2022-08-28T12:59:36.009Z,19.70
2022-08-28T13:02:27.643Z,19.70
2022-08-28T13:05:08.941Z,19.70
2022-08-28T13:07:40.488Z,19.80
2022-08-28T13:10:23.285Z,19.90
2022-08-28T13:13:05.391Z,20.10
2022-08-28T13:15:56.897Z,20.10
2022-08-28T13:18:35.878Z,19.90
2022-08-28T13:21:58.386Z,19.90
2022-08-28T13:24:28.528Z,20.00
2022-08-28T13:27:07.257Z,19.90
2022-08-28T13:29:34.899Z,20.00
2022-08-28T13:32:17.377Z,20.10
2022-08-28T13:35:09.310Z,20.00
2022-08-28T13:37:48.909Z,20.00
2022-08-28T13:40:53.351Z,20.10
2022-08-28T13:43:11.682Z,20.30
2022-08-28T13:45:42.955Z,20.30
2022-08-28T13:48:15.562Z,20.40
2022-08-28T13:50:46.590Z,20.30
2022-08-28T13:53:16.005Z,20.50
2022-08-28T13:55:42.856Z,20.50
2022-08-28T13:58:10.593Z,20.60
2022-08-28T14:00:42.370Z,20.60
2022-08-28T14:03:27.811Z,20.50
2022-08-28T14:05:54.513Z,20.50
2022-08-28T14:08:21.922Z,20.40
2022-08-28T14:10:48.854Z,20.50
2022-08-28T14:13:16.079Z,20.60
2022-08-28T14:15:42.985Z,20.60
2022-08-28T14:18:09.777Z,20.50
2022-08-28T14:20:38.297Z,20.30
2022-08-28T14:23:05.364Z,20.20
2022-08-28T14:25:37.088Z,20.20
2022-08-28T14:28:05.907Z,20.20
2022-08-28T14:30:32.742Z,20.30
2022-08-28T14:32:59.600Z,20.40
2022-08-28T14:35:26.704Z,20.60
2022-08-28T14:37:53.448Z,20.80
2022-08-28T14:40:20.563Z,20.90
2022-08-28T14:42:47.630Z,21.10
2022-08-28T14:45:14.585Z,21.40
2022-08-28T14:47:45.405Z,21.30
2022-08-28T14:50:12.279Z,21.10
2022-08-28T14:52:39.234Z,21.20
2022-08-28T14:55:06.382Z,21.20
2022-08-28T14:57:33.254Z,21.00
2022-08-28T15:00:02.577Z,21.00
2022-08-28T15:02:29.584Z,20.90
2022-08-28T15:04:56.282Z,20.80
2022-08-28T15:07:23.012Z,20.80
2022-08-28T15:09:50.090Z,21.00
2022-08-28T15:12:17.006Z,20.90
2022-08-28T15:14:44.313Z,20.80
2022-08-28T15:17:18.736Z,20.80
2022-08-28T15:19:48.278Z,20.60
2022-08-28T15:35:34.165Z,19.40
2022-08-28T15:38:26.632Z,19.20
2022-08-28T15:41:14.037Z,19.10
2022-08-28T15:43:52.710Z,19.10
2022-08-28T15:46:32.447Z,19.20
2022-08-28T15:49:23.759Z,19.30
2022-08-28T15:56:05.359Z,19.40
2022-08-28T16:02:48.468Z,19.90
2022-08-28T16:05:19.955Z,20.10
2022-08-28T16:07:58.241Z,20.20
2022-08-28T16:11:08.091Z,20.10
2022-08-28T16:14:09.863Z,20.30
2022-08-28T16:16:46.438Z,20.50
2022-08-28T16:20:17.283Z,20.40
2022-08-28T16:29:39.569Z,20.00
2022-08-28T16:32:27.398Z,20.00
2022-08-28T16:35:11.439Z,20.10
2022-08-28T16:37:40.095Z,20.00
2022-08-28T16:40:08.942Z,20.00
2022-08-28T16:42:39.255Z,19.70
2022-08-28T16:45:07.131Z,19.60
2022-08-28T16:47:38.276Z,19.40
2022-08-28T16:50:22.113Z,19.40
2022-08-28T16:56:37.999Z,19.40
2022-08-28T16:59:32.225Z,19.20
2022-08-28T17:02:36.581Z,19.20
2022-08-28T17:05:16.569Z,19.10
2022-08-28T17:07:44.531Z,19.20
2022-08-28T17:10:14.250Z,19.20
2022-08-28T17:12:41.717Z,19.00
2022-08-28T17:15:11.311Z,19.00
2022-08-28T17:17:41.851Z,19.00
2022-08-28T17:20:31.719Z,18.90
2022-08-28T17:23:01.146Z,18.80
2022-08-28T17:25:28.489Z,18.70
2022-08-28T17:27:55.848Z,18.70
2022-08-28T17:30:23.446Z,18.60
2022-08-28T17:32:50.655Z,18.50
2022-08-28T17:35:18.097Z,18.60
2022-08-28T17:37:45.664Z,18.50
2022-08-28T17:40:15.536Z,18.60
2022-08-28T17:42:44.454Z,18.50
2022-08-28T17:45:12.347Z,18.60
2022-08-28T17:47:39.277Z,18.40
2022-08-28T17:50:07.187Z,18.40
2022-08-28T17:52:36.599Z,18.30
2022-08-28T17:55:04.411Z,18.10
2022-08-28T17:57:31.973Z,18.00
2022-08-28T18:00:00.099Z,18.00
2022-08-28T18:02:29.211Z,18.00
2022-08-28T18:04:56.168Z,18.00
2022-08-28T18:07:23.652Z,17.90
2022-08-28T18:09:50.576Z,17.90
2022-08-28T18:12:17.833Z,17.80
2022-08-28T18:14:47.034Z,17.80
2022-08-28T18:17:16.400Z,17.80
2022-08-28T18:19:43.485Z,17.70
2022-08-28T18:22:11.847Z,17.60
2022-08-28T18:24:39.939Z,17.60
2022-08-28T18:27:08.096Z,17.50
2022-08-28T18:29:36.642Z,17.50
2022-08-28T18:32:07.940Z,17.40
2022-08-28T18:34:35.004Z,17.40
2022-08-28T18:37:04.987Z,17.30
2022-08-28T18:39:32.353Z,17.30
2022-08-28T18:41:59.409Z,17.20
2022-08-28T18:44:26.583Z,17.20
2022-08-28T18:46:53.639Z,17.20
2022-08-28T18:49:20.450Z,17.20
2022-08-28T18:51:47.167Z,17.20
2022-08-28T18:54:18.010Z,17.10
2022-08-28T18:56:46.063Z,17.00
2022-08-28T18:59:15.764Z,17.00
2022-08-28T19:01:42.565Z,17.10
2022-08-28T19:04:11.641Z,17.00
2022-08-28T19:06:40.281Z,17.10
2022-08-28T19:09:07.092Z,17.10
2022-08-28T19:11:36.852Z,17.10
2022-08-28T19:14:04.226Z,17.10
2022-08-28T19:16:31.930Z,17.10
2022-08-28T19:18:58.748Z,17.20
2022-08-28T19:21:26.257Z,17.20
2022-08-28T19:23:55.471Z,17.20
2022-08-28T19:26:24.585Z,17.20
2022-08-28T19:28:51.817Z,17.20
2022-08-28T19:31:18.765Z,17.10
2022-08-28T19:33:46.433Z,17.10
2022-08-28T19:36:13.787Z,17.10
2022-08-28T19:38:41.235Z,17.20
2022-08-28T19:41:10.429Z,17.10
2022-08-28T19:43:44.580Z,17.10
2022-08-28T19:46:18.290Z,17.10
2022-08-28T19:48:48.532Z,17.10
2022-08-28T19:51:18.213Z,17.00
2022-08-28T19:53:57.228Z,17.00
2022-08-28T19:56:26.915Z,16.90
2022-08-28T19:58:57.948Z,16.90
2022-08-28T20:01:26.150Z,16.90
2022-08-28T20:03:53.154Z,16.90
2022-08-28T20:06:19.886Z,16.90
2022-08-28T20:08:46.630Z,16.90
2022-08-28T20:11:24.788Z,17.00
2022-08-28T20:13:56.686Z,16.90
2022-08-28T20:16:24.248Z,16.80
2022-08-28T20:18:50.990Z,16.80
2022-08-28T20:21:28.888Z,16.80
2022-08-28T20:24:09.262Z,16.90
2022-08-28T20:26:37.042Z,16.80
2022-08-28T20:29:05.899Z,16.80
2022-08-28T20:31:34.729Z,16.70
2022-08-28T20:34:01.492Z,16.70
2022-08-28T20:36:33.582Z,16.70
2022-08-28T20:39:00.766Z,16.80
2022-08-28T20:41:28.388Z,16.70
2022-08-28T20:43:56.319Z,16.70
2022-08-28T20:46:25.740Z,16.80
2022-08-28T20:48:52.495Z,16.90
2022-08-28T20:51:39.318Z,16.90
2022-08-28T20:54:05.973Z,16.70
2022-08-28T20:56:32.793Z,16.50
2022-08-28T20:59:02.080Z,16.50
2022-08-28T21:01:29.004Z,16.40
2022-08-28T21:03:55.805Z,16.30
2022-08-28T21:06:22.617Z,16.30
2022-08-28T21:08:50.237Z,16.20
2022-08-28T21:11:17.472Z,16.20
2022-08-28T21:13:44.313Z,16.20
2022-08-28T21:16:11.035Z,16.20
2022-08-28T21:18:45.504Z,16.10
2022-08-28T21:21:20.541Z,16.00
2022-08-28T21:23:49.583Z,16.00
2022-08-28T21:26:19.044Z,16.00
2022-08-28T21:28:45.816Z,16.00
2022-08-28T21:31:14.368Z,15.90
2022-08-28T21:33:42.103Z,15.90
2022-08-28T21:36:13.659Z,15.80
2022-08-28T21:38:40.559Z,15.80
2022-08-28T21:41:12.276Z,15.80
2022-08-28T21:43:43.980Z,15.80
2022-08-28T21:46:13.020Z,15.70
2022-08-28T21:48:44.606Z,15.70
2022-08-28T21:51:13.853Z,15.80
2022-08-28T21:53:41.712Z,16.00
2022-08-28T21:56:08.745Z,15.90
2022-08-28T21:58:38.105Z,15.70
2022-08-28T22:01:05.445Z,15.70
2022-08-28T22:03:34.622Z,15.60
2022-08-28T22:06:03.345Z,15.60
2022-08-28T22:08:32.465Z,15.60
2022-08-28T22:10:59.195Z,15.50
2022-08-28T22:13:25.934Z,15.50
2022-08-28T22:15:53.665Z,15.50
2022-08-28T22:18:20.640Z,15.50
2022-08-28T22:21:09.390Z,15.40
2022-08-28T22:23:37.266Z,15.40
2022-08-28T22:26:13.414Z,15.60
2022-08-28T22:28:43.417Z,15.70
2022-08-28T22:31:10.284Z,15.70
2022-08-28T22:33:37.096Z,15.50
2022-08-28T22:36:04.463Z,15.40
2022-08-28T22:38:31.421Z,15.40
2022-08-28T22:40:58.138Z,15.30
2022-08-28T22:43:25.165Z,15.20
2022-08-28T22:45:51.932Z,15.50
2022-08-28T22:48:19.795Z,15.50
2022-08-28T22:50:48.146Z,15.60
2022-08-28T22:53:17.673Z,15.70
2022-08-28T22:55:44.819Z,15.50
2022-08-28T22:58:14.221Z,15.30
2022-08-28T23:00:42.180Z,15.40
2022-08-28T23:03:08.992Z,15.50
2022-08-28T23:05:36.034Z,15.50
2022-08-28T23:08:02.936Z,15.70
2022-08-28T23:10:57.593Z,15.70
2022-08-28T23:13:16.821Z,15.60
2022-08-28T23:15:43.928Z,15.30
2022-08-28T23:18:11.185Z,15.10
2022-08-28T23:20:39.343Z,15.20
2022-08-28T23:23:06.670Z,15.10
2022-08-28T23:25:33.815Z,15.10
2022-08-28T23:28:05.866Z,15.10
2022-08-28T23:30:38.761Z,15.20
2022-08-28T23:33:08.448Z,15.30
2022-08-28T23:35:36.540Z,15.40
2022-08-28T23:38:03.930Z,15.50
2022-08-28T23:40:33.994Z,15.60
2022-08-28T23:43:02.763Z,15.40
2022-08-28T23:45:29.647Z,15.50
2022-08-28T23:47:56.612Z,15.40
2022-08-28T23:50:23.659Z,15.00
2022-08-28T23:52:51.893Z,14.90
2022-08-28T23:55:19.594Z,14.80
2022-08-28T23:57:46.329Z,14.80
